Time;durP1;ratioP1;P1;durP2;ratioP2;P2;SDS_P1;SDS_P2;PMS_P1;PMS_P2;Temp;Humidity;BMP_temperature;BMP_pressure;BME280_temperature;BME280_humidity;BME280_pressure;Samples;Min_cycle;Max_cycle;Signal;HPM_P1;HPM_P2
2022/06/14 00:01:18;;;;;;;14.10;3.95;;;7.50;99.90;;;;;;5013855;28;20057;-42
2022/06/14 00:03:45;;;;;;;14.00;3.47;;;7.50;99.90;;;;;;5013700;28;20046;-44
2022/06/14 00:06:15;;;;;;;7.53;3.20;;;7.40;99.90;;;;;;5012212;28;20034;-43
2022/06/14 00:08:42;;;;;;;9.43;2.85;;;7.40;99.90;;;;;;5013922;28;20037;-43
2022/06/14 00:11:12;;;;;;;11.27;3.13;;;8.20;99.90;;;;;;5013624;28;20085;-43
2022/06/14 00:13:39;;;;;;;9.38;3.35;;;7.30;99.90;;;;;;5013836;28;20108;-43
2022/06/14 00:16:05;;;;;;;9.23;2.90;;;7.30;99.90;;;;;;5013393;28;20033;-44
2022/06/14 00:18:31;;;;;;;11.70;3.33;;;7.30;99.90;;;;;;5013221;28;20395;-43
2022/06/14 00:20:57;;;;;;;8.85;3.22;;;7.30;99.90;;;;;;5013674;28;20052;-46
2022/06/14 00:23:22;;;;;;;13.68;3.13;;;7.30;99.90;;;;;;5013295;28;20124;-43
2022/06/14 00:25:53;;;;;;;10.52;3.50;;;7.30;99.90;;;;;;5013576;28;20123;-43
2022/06/14 00:28:19;;;;;;;9.63;2.53;;;7.20;99.90;;;;;;5013220;28;20050;-43
2022/06/14 00:30:49;;;;;;;8.27;2.75;;;7.20;99.90;;;;;;5013642;28;20057;-44
2022/06/14 00:33:15;;;;;;;14.10;3.47;;;7.20;99.90;;;;;;5013523;28;20425;-43
2022/06/14 00:35:41;;;;;;;11.23;2.60;;;7.40;99.90;;;;;;5013369;28;20042;-43
2022/06/14 00:38:07;;;;;;;8.07;2.60;;;7.50;99.90;;;;;;5013291;28;20092;-44
2022/06/14 00:40:35;;;;;;;8.93;3.10;;;7.10;99.90;;;;;;5013244;28;20050;-42
2022/06/14 00:43:02;;;;;;;9.20;3.15;;;7.10;99.90;;;;;;5013272;28;20049;-44
2022/06/14 00:45:28;;;;;;;16.98;3.88;;;8.10;99.90;;;;;;5013087;28;20038;-44
2022/06/14 00:48:04;;;;;;;8.93;3.08;;;7.00;99.90;;;;;;5013418;28;20083;-44
2022/06/14 00:50:55;;;;;;;13.55;4.45;;;7.00;99.90;;;;;;5012939;28;20517;-44
2022/06/14 00:53:26;;;;;;;14.30;3.58;;;7.00;99.90;;;;;;5013247;28;20041;-43
2022/06/14 00:56:02;;;;;;;6.87;2.57;;;6.90;99.90;;;;;;5012962;28;20066;-43
2022/06/14 00:58:42;;;;;;;14.77;3.88;;;7.00;99.90;;;;;;5013084;28;20041;-45
2022/06/14 01:01:20;;;;;;;12.82;3.72;;;6.90;99.90;;;;;;5012977;28;20045;-44
2022/06/14 01:04:02;;;;;;;15.10;3.97;;;6.90;99.90;;;;;;5013164;28;20096;-45
2022/06/14 01:06:42;;;;;;;12.85;4.13;;;6.90;99.90;;;;;;5013056;28;20429;-43
2022/06/14 01:09:17;;;;;;;9.90;3.33;;;6.90;99.90;;;;;;5012283;28;20053;-45
2022/06/14 01:11:45;;;;;;;14.30;3.85;;;6.90;99.90;;;;;;5012822;28;20572;-43
2022/06/14 01:14:17;;;;;;;15.18;4.72;;;7.90;99.90;;;;;;5012450;28;20116;-43
2022/06/14 01:16:44;;;;;;;11.55;4.07;;;6.80;99.90;;;;;;5013071;28;20389;-43
2022/06/14 01:19:22;;;;;;;10.93;4.30;;;7.40;99.90;;;;;;5012763;28;20125;-43
2022/06/14 01:22:10;;;;;;;12.43;4.22;;;6.90;99.90;;;;;;5013020;28;20049;-43
2022/06/14 01:24:39;;;;;;;11.65;3.80;;;6.80;99.90;;;;;;5012967;28;20053;-43
2022/06/14 01:27:08;;;;;;;13.98;4.00;;;6.70;99.90;;;;;;5012654;28;20512;-44
2022/06/14 01:29:36;;;;;;;10.77;3.58;;;6.90;99.90;;;;;;5012996;28;20034;-44
2022/06/14 01:32:06;;;;;;;12.38;4.10;;;6.70;99.90;;;;;;5012387;28;20475;-44
2022/06/14 01:34:35;;;;;;;13.43;4.60;;;6.70;99.90;;;;;;5012272;28;20493;-44
2022/06/14 01:37:01;;;;;;;14.32;4.78;;;6.70;99.90;;;;;;5012365;28;20088;-43
2022/06/14 01:39:27;;;;;;;17.35;4.80;;;6.60;99.90;;;;;;5011927;28;20049;-43
2022/06/14 01:42:18;;;;;;;12.32;4.00;;;6.60;99.90;;;;;;5011961;28;20049;-44
2022/06/14 01:45:06;;;;;;;15.63;4.32;;;6.60;99.90;;;;;;5012427;28;20042;-43
2022/06/14 01:47:57;;;;;;;14.02;4.60;;;6.60;99.90;;;;;;5011405;28;20046;-44
2022/06/14 01:53:19;;;;;;;11.43;4.00;;;6.60;99.90;;;;;;5012289;28;20042;-43
2022/06/14 01:56:22;;;;;;;18.10;4.60;;;6.70;99.90;;;;;;5012143;28;20041;-42
2022/06/14 01:59:03;;;;;;;14.55;4.32;;;6.50;99.90;;;;;;5012184;28;20129;-42
2022/06/14 02:01:48;;;;;;;11.20;4.00;;;6.50;99.90;;;;;;5012391;28;20045;-44
2022/06/14 02:04:46;;;;;;;16.75;5.18;;;6.50;99.90;;;;;;5012002;28;20061;-43
2022/06/14 02:07:33;;;;;;;12.70;4.93;;;6.50;99.90;;;;;;5012687;28;20049;-43
2022/06/14 02:10:18;;;;;;;11.68;4.80;;;6.50;99.90;;;;;;5012186;28;20053;-43
2022/06/14 02:13:03;;;;;;;14.88;4.32;;;6.70;99.90;;;;;;5012485;28;20512;-44
2022/06/14 02:15:32;;;;;;;17.35;5.38;;;6.70;99.90;;;;;;5012756;28;20030;-43
2022/06/14 02:18:04;;;;;;;14.55;5.97;;;6.50;99.90;;;;;;5012013;28;20054;-43
2022/06/14 02:20:45;;;;;;;19.42;4.38;;;6.50;99.90;;;;;;5012094;28;20444;-44
2022/06/14 02:23:11;;;;;;;14.85;4.35;;;6.30;99.90;;;;;;5012196;28;20444;-44
2022/06/14 02:25:51;;;;;;;16.77;5.30;;;6.40;99.90;;;;;;5012046;28;20041;-43
2022/06/14 02:28:22;;;;;;;17.73;4.40;;;6.50;99.90;;;;;;5012310;28;20177;-44
2022/06/14 02:30:58;;;;;;;10.82;4.45;;;6.40;99.90;;;;;;5012261;28;20434;-43
2022/06/14 02:33:32;;;;;;;18.10;4.63;;;6.30;99.90;;;;;;5012466;28;20405;-45
2022/06/14 02:36:13;;;;;;;17.67;5.43;;;7.20;99.90;;;;;;5012302;28;20054;-47
2022/06/14 02:38:59;;;;;;;14.40;4.60;;;6.50;99.90;;;;;;5012143;28;20084;-46
2022/06/14 02:41:33;;;;;;;14.60;4.68;;;6.40;99.90;;;;;;5012056;28;20054;-47
2022/06/14 02:44:23;;;;;;;18.02;5.32;;;6.40;99.90;;;;;;5011893;28;20073;-44
2022/06/14 02:47:17;;;;;;;18.63;5.63;;;6.40;99.90;;;;;;5012112;28;20049;-43
2022/06/14 02:49:55;;;;;;;14.80;4.43;;;6.40;99.90;;;;;;5012320;28;20030;-43
2022/06/14 02:52:30;;;;;;;16.40;4.63;;;6.40;99.90;;;;;;5014991;28;20053;-42
2022/06/14 02:55:08;;;;;;;11.73;4.30;;;6.40;99.90;;;;;;5015738;28;20042;-43
2022/06/14 02:58:02;;;;;;;20.08;4.90;;;6.30;99.90;;;;;;5015514;28;20065;-44
2022/06/14 03:00:36;;;;;;;20.75;5.13;;;6.40;99.90;;;;;;5014933;28;20116;-42
2022/06/14 03:03:06;;;;;;;12.48;4.22;;;6.50;99.90;;;;;;5015094;28;20121;-43
2022/06/14 03:05:55;;;;;;;16.02;4.88;;;6.40;99.90;;;;;;5014950;28;20081;-42
2022/06/14 03:08:26;;;;;;;13.18;4.68;;;6.50;99.90;;;;;;5013927;28;20100;-42
2022/06/14 03:11:24;;;;;;;17.73;5.78;;;6.50;99.90;;;;;;5015116;28;20129;-43
2022/06/14 03:14:01;;;;;;;15.05;4.88;;;6.60;99.90;;;;;;5015125;28;20120;-45
2022/06/14 03:16:34;;;;;;;14.18;4.68;;;6.60;99.90;;;;;;5013855;28;20045;-43
2022/06/14 03:19:35;;;;;;;13.00;4.97;;;6.50;99.90;;;;;;5015203;28;20061;-43
2022/06/14 03:22:15;;;;;;;14.13;5.20;;;6.60;99.90;;;;;;5012647;28;20061;-44
2022/06/14 03:24:47;;;;;;;15.27;5.38;;;6.60;99.90;;;;;;5014639;28;20492;-42
2022/06/14 03:27:37;;;;;;;17.83;6.15;;;6.70;99.90;;;;;;5015093;28;20041;-44
2022/06/14 03:30:27;;;;;;;14.93;4.75;;;6.70;99.90;;;;;;5014801;28;20482;-44
2022/06/14 03:33:16;;;;;;;10.90;4.95;;;6.80;99.90;;;;;;5015227;28;20084;-42
2022/06/14 03:35:49;;;;;;;14.65;5.15;;;6.90;99.90;;;;;;5014766;28;20042;-45
2022/06/14 03:38:32;;;;;;;15.63;5.63;;;6.90;99.90;;;;;;5014886;28;20048;-43
2022/06/14 03:40:58;;;;;;;15.40;5.50;;;7.10;99.90;;;;;;5014488;28;20493;-43
2022/06/14 03:43:24;;;;;;;18.35;5.50;;;7.20;99.90;;;;;;5014414;28;20473;-43
2022/06/14 03:46:03;;;;;;;16.33;5.75;;;7.20;99.90;;;;;;5014614;28;20045;-42
2022/06/14 03:48:30;;;;;;;11.05;5.57;;;7.30;99.90;;;;;;5014623;28;20128;-44
2022/06/14 03:51:15;;;;;;;15.52;5.68;;;7.30;99.90;;;;;;5014028;28;20517;-43
2022/06/14 03:54:15;;;;;;;15.63;5.03;;;7.40;99.90;;;;;;5014579;28;20287;-42
2022/06/14 03:57:02;;;;;;;15.30;5.43;;;7.50;99.90;;;;;;5014005;28;20042;-44
2022/06/14 03:59:46;;;;;;;16.45;5.35;;;7.50;99.90;;;;;;5014143;28;20080;-43
2022/06/14 04:02:20;;;;;;;20.52;5.32;;;8.10;99.90;;;;;;5013427;28;20104;-43
2022/06/14 04:05:15;;;;;;;14.38;5.05;;;7.60;99.90;;;;;;5012697;28;20045;-44
2022/06/14 04:08:01;;;;;;;13.70;5.00;;;8.40;99.90;;;;;;5013554;28;20392;-42
2022/06/14 04:10:29;;;;;;;13.63;5.47;;;7.80;99.90;;;;;;5013892;28;20126;-45
2022/06/14 04:13:13;;;;;;;16.48;5.90;;;8.80;99.90;;;;;;5006573;28;20076;-46
2022/06/14 04:15:54;;;;;;;15.75;5.25;;;7.90;99.90;;;;;;5011080;28;20120;-43
2022/06/14 04:18:40;;;;;;;13.90;4.75;;;7.90;99.90;;;;;;5011593;28;20058;-44
2022/06/14 04:21:24;;;;;;;13.55;4.70;;;8.00;99.90;;;;;;5011388;28;20160;-42
2022/06/14 04:23:59;;;;;;;13.20;5.18;;;8.10;99.90;;;;;;5011087;28;20103;-43
2022/06/14 04:26:48;;;;;;;16.98;5.88;;;8.30;99.90;;;;;;5008542;28;20054;-43
2022/06/14 04:29:26;;;;;;;13.27;5.47;;;8.50;99.90;;;;;;5010427;28;20100;-44
2022/06/14 04:32:02;;;;;;;13.18;5.43;;;9.60;99.90;;;;;;5009930;28;20042;-42
2022/06/14 04:35:01;;;;;;;13.85;5.43;;;9.20;99.90;;;;;;5011347;28;20567;-43
2022/06/14 04:37:50;;;;;;;9.93;4.28;;;9.50;99.90;;;;;;5014932;28;20413;-44
2022/06/14 04:40:25;;;;;;;15.52;5.45;;;10.90;99.90;;;;;;5014209;28;20370;-43
2022/06/14 04:43:05;;;;;;;14.57;4.47;;;9.70;99.90;;;;;;5013280;28;20103;-43
2022/06/14 04:45:40;;;;;;;13.77;4.95;;;9.70;99.90;;;;;;5013722;28;20044;-43
2022/06/14 04:48:15;;;;;;;10.35;3.90;;;10.40;99.90;;;;;;5013685;28;20505;-44
2022/06/14 04:50:52;;;;;;;16.25;4.03;;;10.70;99.90;;;;;;5013792;28;20096;-43
2022/06/14 04:53:27;;;;;;;11.50;3.13;;;10.30;99.90;;;;;;5013935;28;20125;-43
2022/06/14 04:55:59;;;;;;;10.23;3.03;;;10.50;99.90;;;;;;5013802;28;20037;-43
2022/06/14 04:58:39;;;;;;;10.07;3.35;;;10.70;99.90;;;;;;5013742;28;20042;-44
2022/06/14 05:01:14;;;;;;;9.25;2.90;;;10.90;99.90;;;;;;5013915;28;20050;-43
2022/06/14 05:03:43;;;;;;;11.65;3.67;;;11.10;99.90;;;;;;5013587;28;20049;-44
2022/06/14 05:06:19;;;;;;;13.30;3.42;;;11.40;99.90;;;;;;5013756;28;20095;-44
2022/06/14 05:09:06;;;;;;;6.57;2.65;;;11.80;99.90;;;;;;5013788;28;20124;-44
2022/06/14 05:12:07;;;;;;;15.43;3.00;;;12.30;99.90;;;;;;5013238;28;20390;-42
2022/06/14 05:14:35;;;;;;;8.48;2.42;;;12.30;99.90;;;;;;5011151;28;20049;-43
2022/06/14 05:17:25;;;;;;;10.25;2.03;;;12.80;99.90;;;;;;5013691;28;20034;-44
2022/06/14 05:20:18;;;;;;;9.30;2.45;;;12.60;99.90;;;;;;5013712;28;20056;-43
2022/06/14 05:23:02;;;;;;;;;;;12.80;99.90;;;;;;5014049;28;20046;-44
2022/06/14 05:25:43;;;;;;;11.13;1.58;;;12.90;99.90;;;;;;5013531;28;19928;-44
2022/06/14 05:28:13;;;;;;;9.63;2.03;;;13.10;99.90;;;;;;5013384;28;20045;-44
2022/06/14 05:30:44;;;;;;;8.98;1.88;;;13.40;99.90;;;;;;5013283;28;20057;-44
2022/06/14 05:33:09;;;;;;;7.88;1.70;;;13.50;99.90;;;;;;5013326;28;20033;-44
2022/06/14 05:35:44;;;;;;;8.85;2.13;;;13.80;99.90;;;;;;5012790;28;20488;-44
2022/06/14 05:38:32;;;;;;;7.88;1.80;;;14.10;99.90;;;;;;5013045;28;20034;-43
2022/06/14 05:41:01;;;;;;;9.75;2.08;;;14.40;99.90;;;;;;5012734;28;20520;-45
2022/06/14 05:43:45;;;;;;;13.68;1.52;;;15.40;99.90;;;;;;5012883;28;20046;-43
2022/06/14 05:46:38;;;;;;;10.18;1.85;;;14.90;99.90;;;;;;5013151;28;20065;-44
2022/06/14 05:49:15;;;;;;;9.82;1.95;;;15.30;99.90;;;;;;5011505;28;20061;-45
2022/06/14 05:51:48;;;;;;;5.82;1.25;;;15.60;99.90;;;;;;5013190;28;20046;-44
2022/06/14 05:54:33;;;;;;;10.25;1.33;;;15.70;99.90;;;;;;5012920;28;20038;-44
2022/06/14 05:57:06;;;;;;;7.28;1.15;;;16.10;99.90;;;;;;5012749;28;20041;-44
2022/06/14 05:59:35;;;;;;;;;;;16.60;99.90;;;;;;5013067;28;20042;-44
2022/06/14 06:02:13;;;;;;;6.57;1.40;;;17.60;99.90;;;;;;5012678;28;20008;-45
2022/06/14 06:04:50;;;;;;;5.07;1.20;;;18.80;99.90;;;;;;5012605;28;20084;-47
2022/06/14 06:07:20;;;;;;;8.90;1.30;;;19.50;97.10;;;;;;5011964;28;20042;-44
2022/06/14 06:10:08;;;;;;;5.85;0.90;;;19.70;95.70;;;;;;5012027;28;20052;-46
2022/06/14 06:12:41;;;;;;;5.90;1.08;;;19.70;94.50;;;;;;5011452;28;20504;-46
2022/06/14 06:15:22;;;;;;;6.20;1.33;;;19.30;95.30;;;;;;5011768;28;20362;-47
2022/06/14 06:17:59;;;;;;;7.65;0.98;;;19.90;94.60;;;;;;5011353;28;20137;-46
2022/06/14 06:20:34;;;;;;;8.32;0.93;;;21.30;92.90;;;;;;5012202;28;20046;-45
2022/06/14 06:23:26;;;;;;;6.53;0.80;;;22.30;91.00;;;;;;5011696;28;20548;-45
2022/06/14 06:25:56;;;;;;;4.88;0.60;;;23.90;84.70;;;;;;5013374;28;20068;-45
2022/06/14 06:28:31;;;;;;;4.95;0.65;;;25.10;78.60;;;;;;5015417;28;20096;-45
2022/06/14 06:31:15;;;;;;;5.25;0.55;;;25.10;74.40;;;;;;5014648;28;20541;-46
2022/06/14 06:33:44;;;;;;;6.05;0.68;;;24.20;73.30;;;;;;5015154;28;20044;-46
2022/06/14 06:36:10;;;;;;;5.25;0.85;;;24.00;76.40;;;;;;5014640;28;20038;-46
2022/06/14 06:38:49;;;;;;;4.68;0.73;;;23.80;75.90;;;;;;5015076;28;20034;-47
2022/06/14 06:44:07;;;;;;;3.05;0.50;;;24.10;77.50;;;;;;5013839;28;20045;-46
2022/06/14 06:46:41;;;;;;;4.90;0.45;;;26.00;75.70;;;;;;5014830;28;20057;-46
2022/06/14 06:49:12;;;;;;;5.25;0.88;;;26.60;71.40;;;;;;5014927;28;20038;-46
2022/06/14 06:51:47;;;;;;;5.47;0.47;;;27.50;68.00;;;;;;5014508;28;20053;-46
2022/06/14 06:54:24;;;;;;;3.60;0.32;;;27.70;65.20;;;;;;5014161;28;20288;-46
2022/06/14 06:56:56;;;;;;;6.13;0.65;;;28.30;62.20;;;;;;5014287;28;20045;-47
2022/06/14 06:59:28;;;;;;;6.47;0.60;;;29.00;61.60;;;;;;5014508;28;20367;-47
2022/06/14 07:01:57;;;;;;;;;;;29.80;59.60;;;;;;5014948;28;20132;-46
2022/06/14 07:07:31;;;;;;;3.55;0.35;;;31.30;58.40;;;;;;5010712;28;20405;-49
2022/06/14 07:10:27;;;;;;;3.63;0.30;;;31.80;56.30;;;;;;5011504;28;20046;-48
2022/06/14 07:13:14;;;;;;;4.28;1.08;;;32.50;54.90;;;;;;5010731;28;20133;-51
2022/06/14 07:15:49;;;;;;;4.43;0.80;;;32.10;53.20;;;;;;5011118;28;20117;-49
2022/06/14 07:18:23;;;;;;;4.28;0.60;;;31.70;52.50;;;;;;5010910;28;20085;-50
2022/06/14 07:20:54;;;;;;;2.70;0.43;;;32.30;51.80;;;;;;5011157;28;20053;-51
2022/06/14 07:23:39;;;;;;;3.25;0.40;;;32.70;51.70;;;;;;5011511;28;20045;-51
2022/06/14 07:26:22;;;;;;;3.80;0.38;;;33.30;50.80;;;;;;5012630;28;20073;-46
2022/06/14 07:28:53;;;;;;;2.10;0.50;;;34.00;49.80;;;;;;5014796;28;20085;-48
2022/06/14 07:31:40;;;;;;;4.57;0.35;;;35.00;49.40;;;;;;5015320;28;20133;-48
2022/06/14 07:34:07;;;;;;;3.70;0.32;;;35.80;48.20;;;;;;5014655;28;20053;-47
2022/06/14 07:36:49;;;;;;;2.95;0.43;;;36.20;47.30;;;;;;5013802;28;20496;-46
2022/06/14 07:39:32;;;;;;;3.63;0.45;;;35.30;46.50;;;;;;5015230;28;20096;-48
2022/06/14 07:42:44;;;;;;;4.28;0.68;;;33.20;44.30;;;;;;5014858;28;20494;-47
2022/06/14 07:45:28;;;;;;;5.78;0.68;;;31.30;46.10;;;;;;5013277;28;20054;-46
2022/06/14 07:48:15;;;;;;;3.50;0.73;;;30.20;48.00;;;;;;5014691;28;20552;-46
2022/06/14 07:50:49;;;;;;;5.13;0.70;;;30.90;48.40;;;;;;5014868;28;20133;-45
2022/06/14 07:53:36;;;;;;;3.78;0.88;;;30.20;49.20;;;;;;5014771;28;20038;-47
2022/06/14 07:56:22;;;;;;;3.75;0.80;;;29.10;48.90;;;;;;5015011;28;20109;-46
2022/06/14 07:58:58;;;;;;;2.22;0.57;;;29.50;50.20;;;;;;5015043;28;20085;-47
2022/06/14 08:01:53;;;;;;;3.97;0.43;;;31.00;50.60;;;;;;5015054;28;20057;-47
2022/06/14 08:04:43;;;;;;;2.50;0.38;;;32.30;50.30;;;;;;5014851;28;20034;-46
2022/06/14 08:07:15;;;;;;;4.30;0.80;;;32.80;48.50;;;;;;5014865;28;20042;-47
2022/06/14 08:09:43;;;;;;;3.38;0.60;;;32.90;46.20;;;;;;5014661;28;20053;-47
2022/06/14 08:12:55;;;;;;;4.45;0.40;;;31.50;46.40;;;;;;5014786;28;20053;-46
2022/06/14 08:15:35;;;;;;;4.63;0.57;;;30.10;47.00;;;;;;5010283;28;20489;-46
2022/06/14 08:18:24;;;;;;;6.03;0.90;;;30.60;47.40;;;;;;5014036;28;20048;-46
2022/06/14 08:21:11;;;;;;;2.17;0.50;;;31.30;48.90;;;;;;5014109;28;20053;-47
2022/06/14 08:23:57;;;;;;;2.22;0.40;;;31.80;48.20;;;;;;5014444;28;20042;-46
2022/06/14 08:26:47;;;;;;;4.78;0.40;;;33.10;47.20;;;;;;5014359;28;20487;-48
2022/06/14 08:29:19;;;;;;;3.00;0.30;;;34.40;45.30;;;;;;5014447;28;20381;-48
2022/06/14 08:32:16;;;;;;;3.08;0.85;;;35.50;44.00;;;;;;5014105;28;20084;-47
2022/06/14 08:35:30;;;;;;;3.65;0.52;;;36.80;42.60;;;;;;5012557;28;20104;-49
2022/06/14 08:38:05;;;;;;;2.05;0.30;;;37.70;42.00;;;;;;5011377;28;20433;-52
2022/06/14 08:40:33;;;;;;;3.28;0.77;;;38.60;40.30;;;;;;5011012;28;20488;-48
2022/06/14 08:43:08;;;;;;;5.47;0.38;;;39.70;40.60;;;;;;5012559;28;20050;-50
2022/06/14 08:45:42;;;;;;;2.55;0.50;;;40.40;39.80;;;;;;5013417;28;20120;-51
2022/06/14 08:48:26;;;;;;;2.95;0.45;;;40.30;38.50;;;;;;5012408;28;20187;-50
2022/06/14 08:51:10;;;;;;;4.40;0.68;;;38.20;38.20;;;;;;5013258;28;20038;-49
2022/06/14 08:54:01;;;;;;;5.57;0.88;;;35.90;39.00;;;;;;5014142;28;20038;-47
2022/06/14 08:56:55;;;;;;;5.07;0.60;;;33.60;40.90;;;;;;5014282;28;20045;-47
2022/06/14 08:59:20;;;;;;;4.57;0.47;;;31.70;41.60;;;;;;5013927;28;20125;-46
2022/06/14 09:02:24;;;;;;;4.10;0.50;;;30.30;43.70;;;;;;5013835;28;20117;-46
2022/06/14 09:05:11;;;;;;;4.07;0.50;;;29.90;45.40;;;;;;5013871;28;20042;-46
2022/06/14 09:07:58;;;;;;;5.32;0.70;;;31.00;44.00;;;;;;5014176;28;20068;-49
2022/06/14 09:10:51;;;;;;;3.22;0.40;;;32.70;42.40;;;;;;5013256;28;20133;-47
2022/06/14 09:13:55;;;;;;;3.85;0.40;;;34.00;42.50;;;;;;5013744;28;20042;-48
2022/06/14 09:16:36;;;;;;;2.90;0.40;;;35.60;41.50;;;;;;5011171;28;20516;-48
2022/06/14 09:19:43;;;;;;;2.03;0.25;;;37.10;40.80;;;;;;5012597;28;20061;-49
2022/06/14 09:22:19;;;;;;;2.78;0.82;;;38.50;38.60;;;;;;5010700;28;20049;-51
2022/06/14 09:24:56;;;;;;;3.20;0.50;;;39.60;39.00;;;;;;5013055;28;20499;-47
2022/06/14 09:27:22;;;;;;;3.65;0.63;;;38.90;37.80;;;;;;5013336;28;20033;-48
2022/06/14 09:29:59;;;;;;;3.35;0.95;;;37.40;37.90;;;;;;5013589;28;20490;-48
2022/06/14 09:33:09;;;;;;;3.17;0.57;;;35.80;38.90;;;;;;5013591;28;20080;-48
2022/06/14 09:35:56;;;;;;;5.05;1.02;;;34.10;38.50;;;;;;5013001;28;20053;-46
2022/06/14 09:38:47;;;;;;;3.88;0.70;;;32.40;40.20;;;;;;5012997;28;20543;-51
2022/06/14 09:41:46;;;;;;;3.83;0.60;;;31.40;42.80;;;;;;5013529;28;20120;-46
2022/06/14 09:44:21;;;;;;;3.45;0.50;;;30.60;42.20;;;;;;5013007;28;20065;-46
2022/06/14 09:47:08;;;;;;;4.80;0.47;;;29.40;43.80;;;;;;5013261;28;20096;-45
2022/06/14 09:49:44;;;;;;;3.03;0.70;;;28.30;45.80;;;;;;5013469;28;20038;-46
2022/06/14 09:52:38;;;;;;;4.35;0.52;;;27.40;65.50;;;;;;5013283;28;20053;-45
2022/06/14 09:55:32;;;;;;;2.05;0.38;;;27.80;58.80;;;;;;5013372;28;20038;-48
2022/06/14 09:57:57;;;;;;;4.45;0.57;;;29.70;48.40;;;;;;5013516;28;20041;-47
2022/06/14 10:00:42;;;;;;;3.05;0.30;;;31.60;47.70;;;;;;5012726;28;20123;-48
2022/06/14 10:03:25;;;;;;;2.05;0.30;;;33.40;42.90;;;;;;5013124;28;20041;-46
2022/06/14 10:06:25;;;;;;;3.75;0.35;;;34.90;42.50;;;;;;5012964;28;20478;-49
2022/06/14 10:09:04;;;;;;;2.47;0.40;;;36.30;39.90;;;;;;5011702;28;20053;-48
2022/06/14 10:11:39;;;;;;;3.83;0.60;;;36.80;38.30;;;;;;5012929;28;20042;-51
2022/06/14 10:14:11;;;;;;;3.65;0.40;;;37.20;37.00;;;;;;5013096;28;20038;-50
2022/06/14 10:16:57;;;;;;;1.70;0.20;;;37.30;36.70;;;;;;5012996;28;20045;-48
2022/06/14 10:19:32;;;;;;;1.95;0.32;;;37.60;38.70;;;;;;5012052;28;20050;-47
2022/06/14 10:22:22;;;;;;;2.25;0.32;;;37.90;36.90;;;;;;5011819;28;20143;-47
2022/06/14 10:24:59;;;;;;;1.35;0.40;;;36.90;36.80;;;;;;5013224;28;20046;-46
2022/06/14 10:30:34;;;;;;;2.67;0.30;;;33.60;37.80;;;;;;5012549;28;20096;-46
2022/06/14 10:33:28;;;;;;;4.70;0.40;;;31.70;39.10;;;;;;5011483;28;20044;-47
2022/06/14 10:36:11;;;;;;;2.08;0.45;;;30.30;41.00;;;;;;5013331;28;20052;-45
2022/06/14 10:39:15;;;;;;;5.63;0.30;;;29.20;43.80;;;;;;5012959;28;20490;-47
2022/06/14 10:41:51;;;;;;;4.65;0.45;;;28.20;45.90;;;;;;5013332;28;20483;-46
2022/06/14 10:44:49;;;;;;;4.25;0.40;;;27.60;49.70;;;;;;5013094;28;20113;-46
2022/06/14 10:47:52;;;;;;;2.10;0.30;;;27.10;49.80;;;;;;5013288;28;20045;-45
2022/06/14 10:50:29;;;;;;;4.43;0.22;;;26.90;56.70;;;;;;5013151;28;20038;-46
2022/06/14 10:53:15;;;;;;;2.65;0.40;;;27.10;61.20;;;;;;5013216;28;20042;-47
2022/06/14 10:55:52;;;;;;;4.05;0.40;;;27.40;61.60;;;;;;5011521;28;20112;-46
2022/06/14 10:58:41;;;;;;;2.67;0.52;;;27.70;59.80;;;;;;5013056;28;20041;-47
2022/06/14 11:01:34;;;;;;;1.83;0.30;;;27.90;57.20;;;;;;5012879;28;20081;-47
2022/06/14 11:04:20;;;;;;;3.70;0.50;;;28.00;58.50;;;;;;5012958;28;20064;-45
2022/06/14 11:06:55;;;;;;;2.80;0.20;;;28.10;53.90;;;;;;5013083;28;20052;-46
2022/06/14 11:09:35;;;;;;;3.83;0.40;;;27.80;52.10;;;;;;5012818;28;20460;-45
2022/06/14 11:12:07;;;;;;;4.80;0.30;;;27.60;54.60;;;;;;5013902;28;20370;-45
2022/06/14 11:14:42;;;;;;;2.83;0.30;;;27.30;57.60;;;;;;5016322;28;20033;-46
2022/06/14 11:17:45;;;;;;;2.45;0.30;;;26.90;58.60;;;;;;5016466;28;20041;-45
2022/06/14 11:20:37;;;;;;;2.85;0.40;;;26.60;56.90;;;;;;5016304;28;20057;-44
2022/06/14 11:23:22;;;;;;;3.90;0.30;;;26.20;54.90;;;;;;5016474;28;20052;-45
2022/06/14 11:26:06;;;;;;;1.85;0.20;;;25.90;50.30;;;;;;5016163;28;20042;-45
2022/06/14 11:28:43;;;;;;;1.67;0.20;;;25.60;54.40;;;;;;5016052;28;20571;-46
2022/06/14 11:31:32;;;;;;;2.00;0.47;;;25.50;56.10;;;;;;5015996;28;20431;-45
2022/06/14 11:34:06;;;;;;;2.88;0.30;;;25.60;55.80;;;;;;5016187;28;20099;-46
2022/06/14 11:36:44;;;;;;;1.88;0.25;;;25.70;59.50;;;;;;5015848;28;20038;-45
2022/06/14 11:39:34;;;;;;;2.42;0.22;;;25.70;58.00;;;;;;5014457;28;20042;-46
2022/06/14 11:42:35;;;;;;;2.45;0.30;;;25.90;54.10;;;;;;5015767;28;20404;-45
2022/06/14 11:45:26;;;;;;;3.90;0.57;;;26.30;57.70;;;;;;5014726;28;20061;-45
2022/06/14 11:47:58;;;;;;;1.88;0.43;;;26.60;54.80;;;;;;5016088;28;20046;-45
2022/06/14 11:50:48;;;;;;;4.25;0.40;;;26.90;56.50;;;;;;5015759;28;20057;-45
2022/06/14 11:53:23;;;;;;;2.78;0.50;;;26.90;52.90;;;;;;5015538;28;20041;-45
2022/06/14 11:56:02;;;;;;;6.70;1.70;;;26.90;54.80;;;;;;5015372;28;20045;-47
2022/06/14 11:59:04;;;;;;;2.17;0.20;;;26.70;52.50;;;;;;5015651;28;20367;-47
2022/06/14 12:01:58;;;;;;;1.70;0.20;;;26.50;52.00;;;;;;5015609;28;20045;-46
2022/06/14 12:04:53;;;;;;;3.67;0.30;;;26.30;51.60;;;;;;5015621;28;20096;-45
2022/06/14 12:07:38;;;;;;;2.47;0.35;;;25.70;45.30;;;;;;5015508;28;20049;-45
2022/06/14 12:10:25;;;;;;;1.98;0.20;;;25.20;49.00;;;;;;5015234;28;20073;-44
2022/06/14 12:13:00;;;;;;;1.75;0.40;;;24.90;51.00;;;;;;5015299;28;20046;-45
2022/06/14 12:15:48;;;;;;;2.10;0.25;;;24.60;51.90;;;;;;5015386;28;20049;-45
2022/06/14 12:18:18;;;;;;;1.65;0.10;;;24.50;52.90;;;;;;5014913;28;20556;-46
2022/06/14 12:21:09;;;;;;;0.90;0.20;;;24.30;52.20;;;;;;5015393;28;20117;-44
2022/06/14 12:23:50;;;;;;;1.33;0.28;;;24.00;50.60;;;;;;5014820;28;20425;-46
2022/06/14 12:26:37;;;;;;;1.10;0.10;;;23.90;52.30;;;;;;5015233;28;20418;-45
2022/06/14 12:29:25;;;;;;;1.58;0.22;;;23.90;51.90;;;;;;5015296;28;20041;-45
2022/06/14 12:31:57;;;;;;;1.48;0.10;;;24.00;52.20;;;;;;5015121;28;20084;-44
2022/06/14 12:34:43;;;;;;;1.45;0.20;;;24.10;53.20;;;;;;5015071;28;20038;-45
2022/06/14 12:37:27;;;;;;;1.65;0.65;;;24.20;53.20;;;;;;5015139;28;20076;-45
2022/06/14 12:40:10;;;;;;;1.40;0.20;;;24.50;53.40;;;;;;5015103;28;20038;-45
2022/06/14 12:42:56;;;;;;;1.90;0.15;;;24.90;54.40;;;;;;5014652;28;20497;-45
2022/06/14 12:45:50;;;;;;;3.28;0.35;;;25.10;55.00;;;;;;5014763;28;20437;-45
2022/06/14 12:48:40;;;;;;;2.20;0.35;;;25.60;50.80;;;;;;5014924;28;20041;-46
2022/06/14 12:51:20;;;;;;;3.22;0.28;;;25.90;51.70;;;;;;5014689;28;20071;-44
2022/06/14 12:54:14;;;;;;;2.67;0.28;;;26.40;51.30;;;;;;5014708;28;20042;-45
2022/06/14 12:56:54;;;;;;;3.97;0.30;;;26.40;49.30;;;;;;5014627;28;20107;-46
2022/06/14 12:59:31;;;;;;;4.50;0.20;;;26.20;51.40;;;;;;5014474;28;20091;-46
2022/06/14 13:02:14;;;;;;;3.97;0.30;;;26.00;51.80;;;;;;5014741;28;20466;-46
2022/06/14 13:04:55;;;;;;;3.63;0.32;;;25.80;50.90;;;;;;5014534;28;20405;-46
2022/06/14 13:07:34;;;;;;;2.38;0.40;;;25.60;51.50;;;;;;5014474;28;20073;-46
2022/06/14 13:10:21;;;;;;;2.30;0.20;;;25.70;51.80;;;;;;5014128;28;20048;-45
2022/06/14 13:13:02;;;;;;;3.10;0.28;;;25.70;52.40;;;;;;5014724;28;20100;-45
2022/06/14 13:15:30;;;;;;;2.03;0.20;;;25.70;53.50;;;;;;5014280;28;20060;-45
2022/06/14 13:17:56;;;;;;;2.70;0.30;;;25.70;53.00;;;;;;5013968;28;20050;-45
2022/06/14 13:20:58;;;;;;;3.13;0.40;;;25.70;52.90;;;;;;5014287;28;20099;-46
2022/06/14 13:23:38;;;;;;;2.28;0.50;;;25.60;53.20;;;;;;5014131;28;20103;-46
2022/06/14 13:26:22;;;;;;;3.63;0.40;;;25.40;52.50;;;;;;5014120;28;20509;-45
2022/06/14 13:29:08;;;;;;;2.90;0.38;;;25.20;53.80;;;;;;5014096;28;20044;-46
2022/06/14 13:32:11;;;;;;;3.50;0.28;;;25.00;52.80;;;;;;5013506;28;20046;-46
2022/06/14 13:34:57;;;;;;;3.40;0.20;;;24.70;54.00;;;;;;5013303;28;20093;-46
2022/06/14 13:37:41;;;;;;;3.42;0.20;;;24.30;53.10;;;;;;5013583;28;20069;-45
2022/06/14 13:40:21;;;;;;;2.25;0.15;;;23.90;52.90;;;;;;5013619;28;20440;-46
2022/06/14 13:42:53;;;;;;;3.50;0.40;;;23.10;55.40;;;;;;5013739;28;20548;-44
2022/06/14 13:45:52;;;;;;;5.55;0.60;;;22.70;54.20;;;;;;5013812;28;20046;-44
2022/06/14 13:48:27;;;;;;;2.88;0.40;;;22.30;54.80;;;;;;5013893;28;20046;-45
2022/06/14 13:51:14;;;;;;;1.75;0.20;;;22.00;56.90;;;;;;5013798;28;20108;-44
2022/06/14 13:54:03;;;;;;;1.92;0.40;;;22.00;58.60;;;;;;5013580;28;20041;-45
2022/06/14 13:56:35;;;;;;;3.58;0.30;;;22.20;58.20;;;;;;5013614;28;20100;-44
2022/06/14 13:59:13;;;;;;;1.27;0.20;;;22.20;56.60;;;;;;5013769;28;20541;-45
2022/06/14 14:02:14;;;;;;;3.35;0.47;;;22.10;55.90;;;;;;5013384;28;20056;-45
2022/06/14 14:04:51;;;;;;;3.13;0.30;;;22.20;55.80;;;;;;5013514;28;20057;-46
2022/06/14 14:07:31;;;;;;;2.45;0.30;;;22.30;56.60;;;;;;5013545;28;20045;-45
2022/06/14 14:10:29;;;;;;;2.33;0.32;;;22.50;56.90;;;;;;5013476;28;20048;-44